Time;durP1;ratioP1;P1;durP2;ratioP2;P2;SDS_P1;SDS_P2;PMS_P1;PMS_P2;Temp;Humidity;BMP_temperature;BMP_pressure;BME280_temperature;BME280_humidity;BME280_pressure;Samples;Min_cycle;Max_cycle;Signal;HPM_P1;HPM_P2
2022/01/30 00:02:11;;;;;;;;;6.00;6.00;;;;;12.79;67.81;102807.97;4901215;29;45421;-75
2022/01/30 00:04:37;;;;;;;;;5.75;4.50;;;;;12.78;67.96;102815.13;4886876;29;45571;-75
2022/01/30 00:07:02;;;;;;;;;4.50;4.50;;;;;12.79;67.72;102814.19;4886641;29;46085;-75
2022/01/30 00:09:28;;;;;;;;;3.25;3.25;;;;;12.78;67.66;102806.22;4886551;29;45229;-75
2022/01/30 00:11:57;;;;;;;;;5.00;3.00;;;;;12.83;67.47;102798.09;4885862;29;45303;-75
2022/01/30 00:14:25;;;;;;;;;7.00;3.00;;;;;12.85;67.92;102804.34;4886695;29;45481;-75
2022/01/30 00:17:03;;;;;;;;;3.00;3.00;;;;;12.76;67.74;102803.53;4886264;29;45341;-75
2022/01/30 00:19:36;;;;;;;;;3.00;3.00;;;;;12.81;67.75;102802.59;4886613;29;45710;-75
2022/01/30 00:22:16;;;;;;;;;5.00;5.00;;;;;12.85;67.81;102812.41;4899011;29;45448;-75
2022/01/30 00:24:51;;;;;;;;;3.00;3.00;;;;;12.80;67.69;102804.41;4886172;29;45247;-75
2022/01/30 00:27:21;;;;;;;;;4.00;4.00;;;;;12.87;67.73;102810.59;4886247;29;47397;-75
2022/01/30 00:29:46;;;;;;;;;3.75;3.75;;;;;12.79;67.67;102797.25;4886257;29;45607;-76
2022/01/30 00:32:12;;;;;;;;;4.00;4.00;;;;;12.89;68.07;102808.78;4886563;29;45392;-75
2022/01/30 00:34:37;;;;;;;;;1.25;1.25;;;;;12.88;67.87;102812.34;4886455;29;45168;-75
2022/01/30 00:37:03;;;;;;;;;6.75;6.50;;;;;12.87;67.55;102800.75;4886227;29;47180;-75
2022/01/30 00:39:29;;;;;;;;;3.50;3.50;;;;;12.85;67.76;102797.19;4884606;29;45234;-74
2022/01/30 00:41:54;;;;;;;;;5.00;4.00;;;;;12.86;67.78;102796.28;4883736;29;45431;-74
2022/01/30 00:44:20;;;;;;;;;5.00;4.00;;;;;12.90;67.78;102792.69;4885413;29;45517;-75
2022/01/30 00:46:46;;;;;;;;;5.75;4.75;;;;;12.88;67.88;102790.91;4885982;29;46278;-75
2022/01/30 00:49:12;;;;;;;;;7.00;6.25;;;;;12.84;67.84;102784.69;4885825;29;45275;-75
2022/01/30 00:51:37;;;;;;;;;4.75;2.25;;;;;12.92;67.65;102784.63;4885925;29;45630;-74
2022/01/30 00:54:04;;;;;;;;;6.00;4.75;;;;;12.87;67.61;102784.66;4885823;29;45486;-75
2022/01/30 00:56:29;;;;;;;;;4.25;4.00;;;;;12.89;67.61;102776.63;4885610;29;45498;-74
2022/01/30 00:58:55;;;;;;;;;2.75;2.75;;;;;12.82;67.86;102765.06;4885973;29;45294;-74
2022/01/30 01:01:20;;;;;;;;;4.00;4.00;;;;;12.86;68.00;102773.97;4885751;29;45586;-74
2022/01/30 01:03:45;;;;;;;;;3.50;3.50;;;;;12.74;67.94;102754.41;4886091;29;45289;-74
2022/01/30 01:06:11;;;;;;;;;4.00;2.75;;;;;12.82;67.60;102773.09;4885707;29;45337;-75
2022/01/30 01:08:49;;;;;;;;;5.50;4.50;;;;;12.64;67.82;102733.97;4885992;29;45426;-75
2022/01/30 01:24:07;;;;;;;;;3.75;3.25;;;;;12.84;67.57;102757.00;4885215;29;45386;-74
2022/01/30 01:26:34;;;;;;;;;3.50;3.50;;;;;12.82;67.60;102745.44;4885219;29;46412;-74
2022/01/30 01:29:00;;;;;;;;;3.75;3.75;;;;;12.82;67.58;102757.03;4885302;29;45470;-74
2022/01/30 01:31:25;;;;;;;;;3.25;3.25;;;;;12.80;67.65;102748.13;4885377;29;45272;-74
2022/01/30 01:34:13;;;;;;;;;6.00;4.50;;;;;12.83;67.41;102760.56;4885389;29;45221;-74
2022/01/30 01:36:39;;;;;;;;;6.00;4.00;;;;;12.79;67.52;102763.28;4885115;29;46178;-75
2022/01/30 01:39:04;;;;;;;;;3.50;3.50;;;;;12.72;67.33;102740.13;4885202;29;45413;-75
2022/01/30 01:41:32;;;;;;;;;5.25;4.00;;;;;12.82;67.40;102756.16;4884810;29;45369;-75
2022/01/30 01:43:58;;;;;;;;;4.25;4.25;;;;;12.80;67.42;102756.16;4884923;29;45484;-74
2022/01/30 01:46:28;;;;;;;;;3.00;3.00;;;;;12.78;67.38;102756.16;4884812;29;47300;-75
2022/01/30 01:48:54;;;;;;;;;5.00;5.00;;;;;12.77;67.54;102758.84;4885316;29;45337;-74
2022/01/30 01:51:29;;;;;;;;;4.00;4.00;;;;;12.76;67.33;102755.31;4885234;29;45314;-75
2022/01/30 01:53:56;;;;;;;;;5.00;5.00;;;;;12.75;67.50;102748.16;4884741;29;45529;-74
2022/01/30 01:56:22;;;;;;;;;5.25;5.25;;;;;12.72;67.96;102755.34;4871334;29;46073;-74
2022/01/30 01:58:48;;;;;;;;;6.00;4.00;;;;;12.71;67.46;102753.53;4879145;29;45257;-75
2022/01/30 02:01:14;;;;;;;;;4.00;4.00;;;;;12.74;67.81;102753.53;4882988;29;45649;-74
2022/01/30 02:03:40;;;;;;;;;7.50;5.50;;;;;12.73;67.40;102749.97;4884075;29;45451;-75
2022/01/30 02:06:10;;;;;;;;;3.50;3.50;;;;;12.69;67.41;102750.00;4884110;29;45884;-74
2022/01/30 02:08:39;;;;;;;;;5.75;5.75;;;;;12.76;67.38;102768.69;4883759;29;45640;-74
2022/01/30 02:14:43;;;;;;;;;7.50;6.50;;;;;12.77;67.40;102751.69;4883972;29;45279;-75
2022/01/30 02:27:21;;;;;;;;;4.50;4.50;;;;;12.76;67.24;102736.53;4884014;29;46128;-74
2022/01/30 02:29:47;;;;;;;;;5.00;5.00;;;;;12.75;67.41;102741.91;4898795;29;45399;-74
2022/01/30 02:32:12;;;;;;;;;6.00;5.25;;;;;12.75;67.35;102742.78;4884706;29;45442;-74
2022/01/30 02:34:38;;;;;;;;;5.75;5.75;;;;;12.71;67.32;102733.03;4884312;29;45471;-74
2022/01/30 02:37:04;;;;;;;;;5.00;5.00;;;;;12.69;67.03;102729.44;4884600;29;45239;-74
2022/01/30 02:39:30;;;;;;;;;7.75;6.50;;;;;12.74;67.14;102734.75;4884460;29;45319;-74
2022/01/30 02:41:55;;;;;;;;;5.00;5.00;;;;;12.73;67.25;102741.00;4884514;29;45317;-74
2022/01/30 02:44:27;;;;;;;;;4.25;4.25;;;;;12.71;67.31;102740.16;4884230;29;45613;-74
2022/01/30 02:46:55;;;;;;;;;6.00;5.50;;;;;12.68;67.33;102738.41;4884041;29;46441;-74
2022/01/30 02:52:00;;;;;;;;;8.75;5.75;;;;;12.62;67.54;102725.06;4884181;29;45439;-74
2022/01/30 02:54:28;;;;;;;;;6.00;5.00;;;;;12.67;67.24;102746.44;4884194;29;45542;-74
2022/01/30 02:56:53;;;;;;;;;6.50;6.50;;;;;12.68;67.29;102753.56;4884136;29;45762;-74
2022/01/30 02:59:20;;;;;;;;;7.25;5.00;;;;;12.64;67.16;102747.34;4884209;29;45285;-74
2022/01/30 03:01:45;;;;;;;;;6.00;6.00;;;;;12.64;67.06;102746.47;4883937;29;45459;-74
2022/01/30 03:04:11;;;;;;;;;6.25;5.00;;;;;12.64;67.36;102747.34;4883971;29;45245;-74
2022/01/30 03:06:37;;;;;;;;;8.00;6.00;;;;;12.65;67.39;102743.78;4884244;29;46154;-74
2022/01/30 03:09:05;;;;;;;;;6.50;6.25;;;;;12.64;67.21;102760.75;4898673;29;45365;-74
2022/01/30 03:11:31;;;;;;;;;7.00;7.00;;;;;12.62;67.32;102743.81;4884322;29;45354;-74
2022/01/30 03:13:57;;;;;;;;;5.75;5.25;;;;;12.55;67.38;102734.06;4884175;29;45308;-74
2022/01/30 03:16:22;;;;;;;;;5.00;5.00;;;;;12.54;67.43;102733.16;4883765;29;45313;-74
2022/01/30 03:18:48;;;;;;;;;9.75;9.75;;;;;12.59;67.31;102752.75;4898311;29;45883;-74
2022/01/30 03:21:13;;;;;;;;;6.25;6.00;;;;;12.56;67.16;102758.16;4882739;29;45390;-74
2022/01/30 03:23:39;;;;;;;;;8.25;7.00;;;;;12.50;67.20;102739.44;4876807;29;45406;-74
2022/01/30 03:26:06;;;;;;;;;5.25;4.50;;;;;12.52;67.31;102744.78;4887162;29;45353;-74
2022/01/30 03:28:32;;;;;;;;;9.00;7.00;;;;;12.47;67.53;102735.91;4887174;29;45645;-74
2022/01/30 03:31:03;;;;;;;;;6.75;6.00;;;;;12.48;67.11;102740.34;4887149;29;45311;-74
2022/01/30 03:33:29;;;;;;;;;7.75;5.50;;;;;12.48;67.32;102745.69;4887136;29;45256;-74
2022/01/30 03:35:54;;;;;;;;;8.50;5.50;;;;;12.51;67.38;102751.03;4887217;29;46289;-74
2022/01/30 03:38:21;;;;;;;;;8.25;6.00;;;;;12.51;67.26;102754.63;4887235;29;45461;-74
2022/01/30 03:40:47;;;;;;;;;6.75;5.75;;;;;12.51;67.28;102757.31;4887041;29;45369;-74
2022/01/30 03:43:12;;;;;;;;;6.25;6.25;;;;;12.44;67.19;102736.81;4886997;29;45294;-74
2022/01/30 03:45:38;;;;;;;;;8.25;5.00;;;;;12.52;67.29;102742.13;4886737;29;46285;-74
2022/01/30 03:48:04;;;;;;;;;8.50;8.50;;;;;12.50;67.15;102755.53;4886773;29;45313;-75
2022/01/30 03:50:30;;;;;;;;;5.50;4.75;;;;;12.49;67.39;102747.50;4886757;29;45450;-74
2022/01/30 03:52:55;;;;;;;;;6.00;5.25;;;;;12.41;67.32;102732.38;4886578;29;45467;-74
2022/01/30 03:55:22;;;;;;;;;8.50;7.75;;;;;12.42;66.86;102738.63;4886476;29;46973;-74
2022/01/30 03:57:47;;;;;;;;;7.75;7.75;;;;;12.44;66.82;102755.56;4886917;29;45404;-74
2022/01/30 04:00:13;;;;;;;;;6.25;5.50;;;;;12.46;66.24;102744.84;4886814;29;45724;-74
2022/01/30 04:02:39;;;;;;;;;10.25;6.25;;;;;12.46;65.93;102744.84;4886824;29;45419;-74
2022/01/30 04:05:05;;;;;;;;;5.50;5.25;;;;;12.43;65.50;102753.81;4886783;29;46120;-74
2022/01/30 04:07:33;;;;;;;;;5.00;5.00;;;;;12.36;65.11;102742.25;4886806;29;45282;-74
2022/01/30 04:09:59;;;;;;;;;6.00;5.00;;;;;12.36;65.16;102757.41;4886821;29;45461;-74
2022/01/30 04:12:25;;;;;;;;;7.25;5.00;;;;;12.36;65.25;102754.72;4886629;29;45323;-74
2022/01/30 04:14:51;;;;;;;;;6.75;3.00;;;;;12.32;64.57;102750.31;4885957;29;46023;-74
2022/01/30 04:17:19;;;;;;;;;7.25;4.00;;;;;12.34;63.24;102761.91;4885920;29;45439;-74
2022/01/30 04:19:44;;;;;;;;;3.75;2.75;;;;;12.29;62.57;102756.56;4880641;29;45301;-74
2022/01/30 04:22:10;;;;;;;;;5.50;3.00;;;;;12.29;62.43;102758.38;4886491;29;45244;-74
2022/01/30 04:24:35;;;;;;;;;7.00;3.00;;;;;12.26;62.19;102764.63;4886370;29;45991;-74
2022/01/30 04:27:01;;;;;;;;;5.00;4.50;;;;;12.27;61.97;102765.53;4886388;29;45276;-74
2022/01/30 04:29:26;;;;;;;;;3.00;2.00;;;;;12.25;61.43;102764.66;4886389;29;45453;-74
2022/01/30 04:31:52;;;;;;;;;4.75;4.25;;;;;12.21;61.03;102775.38;4886050;29;45509;-74
2022/01/30 04:34:18;;;;;;;;;6.75;4.00;;;;;12.20;61.10;102770.03;4886313;29;46119;-74
2022/01/30 04:37:00;;;;;;;;;3.75;3.75;;;;;12.16;61.01;102766.50;4886502;29;45600;-74
2022/01/30 05:02:55;;;;;;;;;3.50;3.50;;;;;11.94;59.34;102779.09;4885899;29;45327;-74
2022/01/30 05:08:06;;;;;;;;;4.25;3.00;;;;;11.93;59.08;102773.75;4885876;29;45519;-74
2022/01/30 05:10:32;;;;;;;;;2.00;1.00;;;;;11.96;59.64;102785.34;4885673;29;45316;-74
2022/01/30 05:13:00;;;;;;;;;3.50;2.50;;;;;11.91;59.43;102788.91;4885870;29;45562;-74
2022/01/30 05:15:27;;;;;;;;;3.25;1.25;;;;;11.93;59.23;102788.03;4885024;29;45261;-74
2022/01/30 05:17:54;;;;;;;;;2.75;1.75;;;;;11.87;59.23;102780.88;4876351;29;45431;-74
2022/01/30 05:20:20;;;;;;;;;1.25;1.00;;;;;11.87;58.72;102788.91;4883297;29;45480;-74
2022/01/30 05:22:46;;;;;;;;;3.00;1.75;;;;;11.90;58.92;102803.19;4876642;29;45583;-74
2022/01/30 05:25:12;;;;;;;;;3.00;1.50;;;;;11.88;58.63;102803.19;4881624;29;46705;-74
2022/01/30 05:27:38;;;;;;;;;2.25;1.50;;;;;11.84;58.50;102810.38;4883351;29;45346;-74
2022/01/30 05:30:05;;;;;;;;;2.50;1.25;;;;;11.81;58.28;102801.44;4884376;29;45341;-74
2022/01/30 05:32:31;;;;;;;;;3.00;3.00;;;;;11.79;58.73;102809.47;4884556;29;45603;-74
2022/01/30 05:34:56;;;;;;;;;3.00;3.00;;;;;11.78;58.68;102812.19;4899713;29;48279;-74
2022/01/30 05:37:22;;;;;;;;;5.75;1.00;;;;;11.78;58.47;102812.19;4884807;29;45365;-73
2022/01/30 05:39:48;;;;;;;;;3.25;1.25;;;;;11.71;58.42;102797.03;4883352;29;45608;-74
2022/01/30 05:42:14;;;;;;;;;2.75;1.25;;;;;11.64;58.34;102799.75;4884796;29;45555;-74
2022/01/30 05:47:11;;;;;;;;;1.00;1.00;;;;;11.74;58.17;102821.97;4884837;29;45326;-74
2022/01/30 05:49:37;;;;;;;;;1.50;1.00;;;;;11.68;58.08;102809.53;4885355;29;45375;-74
2022/01/30 05:52:03;;;;;;;;;2.75;1.50;;;;;11.67;58.28;102817.56;4885019;29;45329;-74
2022/01/30 05:54:28;;;;;;;;;4.75;3.00;;;;;11.66;58.36;102813.09;4884919;29;46136;-74
2022/01/30 05:56:53;;;;;;;;;2.00;1.00;;;;;11.69;58.12;102818.44;4884779;29;45430;-74
2022/01/30 05:59:19;;;;;;;;;3.25;1.75;;;;;11.65;58.15;102809.53;4885355;29;45401;-74
2022/01/30 06:01:44;;;;;;;;;3.25;2.75;;;;;11.65;57.84;102812.22;4884903;29;45632;-74
2022/01/30 06:04:09;;;;;;;;;5.00;2.50;;;;;11.62;57.96;102812.22;4884986;29;45409;-74
2022/01/30 06:06:35;;;;;;;;;3.25;2.00;;;;;11.64;57.95;102821.16;4885232;29;45380;-74
2022/01/30 06:09:18;;;;;;;;;2.00;2.00;;;;;11.58;58.46;102815.81;4885034;29;45471;-74
2022/01/30 06:11:45;;;;;;;;;3.00;2.25;;;;;11.62;57.88;102827.38;4884871;29;45455;-74
2022/01/30 06:14:10;;;;;;;;;2.25;1.25;;;;;11.49;57.67;102807.81;4884701;29;45376;-74
2022/01/30 06:16:35;;;;;;;;;2.00;2.00;;;;;11.50;57.99;102815.81;4883994;29;45285;-74
2022/01/30 06:19:03;;;;;;;;;2.25;2.00;;;;;11.52;57.62;102830.97;4878353;29;45463;-74
2022/01/30 06:21:29;;;;;;;;;1.75;1.75;;;;;11.55;58.09;102842.56;4884074;29;45184;-74
2022/01/30 06:23:54;;;;;;;;;2.25;1.00;;;;;11.50;57.99;102831.88;4875202;29;46187;-74
2022/01/30 06:26:20;;;;;;;;;2.75;2.50;;;;;11.53;58.11;102841.69;4884425;29;45286;-74
2022/01/30 06:28:45;;;;;;;;;3.25;2.25;;;;;11.55;58.15;102847.03;4885034;29;45169;-74
2022/01/30 06:31:10;;;;;;;;;0.75;0.75;;;;;11.52;58.06;102847.03;4884396;29;45363;-74
2022/01/30 06:33:36;;;;;;;;;1.00;1.00;;;;;11.50;57.98;102845.25;4884797;29;45311;-74
2022/01/30 06:36:01;;;;;;;;;2.00;2.00;;;;;11.54;57.57;102848.78;4884393;29;45211;-74
2022/01/30 06:38:27;;;;;;;;;1.75;1.00;;;;;11.48;57.87;102835.47;4899330;29;45468;-74
2022/01/30 06:40:52;;;;;;;;;1.00;1.00;;;;;11.44;57.95;102829.22;4898791;29;45873;-74
2022/01/30 06:43:17;;;;;;;;;2.25;0.75;;;;;11.49;58.40;102838.13;4884400;29;45203;-74
2022/01/30 06:45:43;;;;;;;;;3.50;1.75;;;;;11.48;58.04;102836.34;4883901;29;45589;-74
2022/01/30 06:48:09;;;;;;;;;2.00;1.00;;;;;11.48;58.44;102847.03;4879991;29;45378;-74
2022/01/30 06:50:34;;;;;;;;;1.75;1.75;;;;;11.49;58.52;102843.47;4880604;29;45484;-74
2022/01/30 06:52:59;;;;;;;;;6.75;3.00;;;;;11.50;57.98;102845.25;4884180;29;46287;-74
2022/01/30 06:55:25;;;;;;;;;1.00;1.00;;;;;11.48;57.72;102843.47;4883895;29;45364;-74
2022/01/30 06:57:50;;;;;;;;;4.25;2.75;;;;;11.48;57.97;102849.72;4883140;29;45518;-74
2022/01/30 07:00:16;;;;;;;;;2.50;1.00;;;;;11.44;57.54;102845.28;4884173;29;45470;-73
2022/01/30 07:02:42;;;;;;;;;5.00;2.00;;;;;11.49;58.02;102847.91;4884096;29;45305;-74
2022/01/30 07:05:08;;;;;;;;;2.50;2.00;;;;;11.41;57.88;102834.59;4898821;29;45375;-74
2022/01/30 07:07:33;;;;;;;;;3.00;1.50;;;;;11.44;58.12;102839.00;4884424;29;45357;-73
2022/01/30 07:09:59;;;;;;;;;3.50;2.75;;;;;11.38;57.25;102836.38;4898644;29;45632;-74
2022/01/30 07:12:24;;;;;;;;;2.50;2.00;;;;;11.39;57.51;102847.03;4884057;29;46766;-74
2022/01/30 07:14:49;;;;;;;;;2.00;1.00;;;;;11.39;56.95;102846.16;4883796;29;45427;-74
2022/01/30 07:17:15;;;;;;;;;0.75;0.75;;;;;11.35;57.20;102855.97;4883560;29;45296;-73
2022/01/30 07:19:40;;;;;;;;;2.00;1.00;;;;;11.34;57.34;102861.31;4873850;29;45536;-73
2022/01/30 07:22:06;;;;;;;;;3.50;2.00;;;;;11.29;57.02;102864.91;4880109;29;45397;-72
2022/01/30 07:24:32;;;;;;;;;1.50;1.50;;;;;11.29;57.00;102867.59;4882884;29;45145;-73
2022/01/30 07:26:58;;;;;;;;;3.25;1.75;;;;;11.24;57.20;102860.44;4883857;29;45366;-73
2022/01/30 07:29:23;;;;;;;;;1.00;1.00;;;;;11.29;57.31;102875.59;4883895;29;45348;-72
2022/01/30 07:31:48;;;;;;;;;2.25;2.00;;;;;11.28;56.57;102887.19;4883713;29;46272;-73
2022/01/30 07:34:14;;;;;;;;;5.25;1.50;;;;;11.24;57.14;102884.50;4882678;29;45269;-73
2022/01/30 07:36:41;;;;;;;;;4.75;1.50;;;;;11.17;57.03;102878.28;4883932;29;45397;-73
2022/01/30 07:39:09;;;;;;;;;5.00;1.50;;;;;11.20;57.36;102897.00;4883950;29;45630;-73
2022/01/30 07:41:34;;;;;;;;;2.75;1.75;;;;;11.22;57.17;102900.53;4874097;29;46378;-72
2022/01/30 07:44:02;;;;;;;;;2.50;2.00;;;;;11.17;56.99;102886.28;4883216;29;45293;-74
2022/01/30 07:46:28;;;;;;;;;3.00;1.75;;;;;11.20;57.61;102896.09;4883311;29;45169;-73
2022/01/30 07:48:54;;;;;;;;;2.50;1.50;;;;;11.19;57.83;102900.53;4883414;29;45489;-73
2022/01/30 07:51:20;;;;;;;;;2.50;1.25;;;;;11.18;57.84;102893.44;4883636;29;46197;-73
2022/01/30 07:53:45;;;;;;;;;3.25;2.00;;;;;11.20;57.74;102896.09;4883675;29;45395;-74
2022/01/30 07:56:12;;;;;;;;;4.00;2.00;;;;;11.15;57.18;102901.44;4883453;29;45415;-73
2022/01/30 07:58:37;;;;;;;;;3.00;2.00;;;;;11.17;57.28;102907.69;4883844;29;45397;-73
2022/01/30 08:01:03;;;;;;;;;4.75;1.50;;;;;11.16;57.56;102915.69;4883130;29;46029;-72
2022/01/30 08:03:28;;;;;;;;;2.00;1.00;;;;;11.15;57.39;102911.25;4883777;29;45208;-72
2022/01/30 08:05:53;;;;;;;;;1.50;1.00;;;;;11.12;57.89;102912.13;4883031;29;45541;-73
2022/01/30 08:08:19;;;;;;;;;2.00;2.00;;;;;11.11;57.70;102910.38;4884739;29;45505;-73
2022/01/30 08:10:44;;;;;;;;;5.75;2.00;;;;;11.16;57.73;102918.38;4885551;29;45405;-72
2022/01/30 08:13:10;;;;;;;;;2.25;2.00;;;;;11.04;57.24;102905.91;4883860;29;45591;-72
2022/01/30 08:15:35;;;;;;;;;3.00;2.00;;;;;11.12;57.49;102920.16;4884633;29;45496;-73
2022/01/30 08:18:00;;;;;;;;;4.25;3.00;;;;;11.05;57.49;102915.72;4889691;29;45565;-73
2022/01/30 08:20:27;;;;;;;;;2.50;2.50;;;;;11.07;57.85;102921.94;4887994;29;45657;-74
2022/01/30 08:22:55;;;;;;;;;6.75;3.00;;;;;11.06;57.99;102912.13;4881798;29;45712;-74
2022/01/30 08:25:22;;;;;;;;;2.00;2.00;;;;;11.15;58.26;102921.94;4886509;29;45388;-73
2022/01/30 08:27:49;;;;;;;;;4.25;2.75;;;;;11.15;57.30;102921.94;4886342;29;45446;-74
2022/01/30 08:30:15;;;;;;;;;4.50;3.00;;;;;11.10;57.29;102930.84;4885304;29;45286;-75
2022/01/30 08:32:52;;;;;;;;;4.00;2.00;;;;;11.05;57.31;102919.25;4885674;29;45281;-75
2022/01/30 08:35:18;;;;;;;;;4.00;2.25;;;;;11.03;57.33;102921.06;4884469;29;45385;-70
2022/01/30 08:37:43;;;;;;;;;4.25;2.00;;;;;11.05;57.08;102915.72;4884420;29;45425;-70
2022/01/30 08:40:12;;;;;;;;;3.50;2.25;;;;;11.03;57.22;102915.72;4885019;29;45362;-71
2022/01/30 08:42:38;;;;;;;;;4.25;2.75;;;;;11.06;57.17;102922.81;4883175;29;45534;-71
2022/01/30 08:45:05;;;;;;;;;5.25;3.00;;;;;11.04;57.19;102914.81;4884384;29;45768;-71
2022/01/30 08:47:30;;;;;;;;;9.25;3.50;;;;;11.08;57.38;102908.56;4884365;28;46972;-70
2022/01/30 08:49:56;;;;;;;;;5.75;3.00;;;;;11.08;57.26;102907.69;4883031;29;45518;-70
2022/01/30 08:52:21;;;;;;;;;2.00;2.00;;;;;11.06;56.94;102921.06;4877754;29;46700;-70
2022/01/30 08:54:49;;;;;;;;;3.75;2.75;;;;;10.88;56.43;102913.91;4883220;29;45380;-70
2022/01/30 08:57:15;;;;;;;;;3.50;2.50;;;;;10.90;56.48;102924.59;4882844;29;45506;-70
2022/01/30 08:59:40;;;;;;;;;5.25;3.00;;;;;10.82;56.56;102926.38;4883214;29;45378;-70
2022/01/30 09:02:05;;;;;;;;;1.25;1.00;;;;;10.72;56.74;102914.78;4881800;29;45760;-69
2022/01/30 09:04:31;;;;;;;;;4.50;2.25;;;;;10.72;56.11;102926.34;4883684;29;45397;-69
2022/01/30 09:06:56;;;;;;;;;3.25;1.25;;;;;10.57;56.32;102904.94;4883910;29;45244;-69
2022/01/30 09:09:22;;;;;;;;;5.25;2.75;;;;;10.60;55.55;102938.78;4883823;29;48183;-67
2022/01/30 09:11:47;;;;;;;;;1.75;1.75;;;;;10.49;56.44;102912.03;4884736;29;45419;-71
2022/01/30 09:14:15;;;;;;;;;4.75;2.00;;;;;10.56;56.38;102940.56;4884481;29;45513;-70
2022/01/30 09:16:41;;;;;;;;;3.75;2.00;;;;;10.52;56.41;102933.41;4894529;28;45651;-70
2022/01/30 09:19:06;;;;;;;;;3.00;1.00;;;;;10.45;56.46;102920.94;4885206;29;45206;-70
2022/01/30 09:21:32;;;;;;;;;3.50;1.75;;;;;10.48;56.20;102937.00;4898552;28;45403;-71
2022/01/30 09:23:57;;;;;;;;;1.25;1.25;;;;;10.41;56.42;102929.81;4885557;29;45451;-71
2022/01/30 09:26:23;;;;;;;;;3.00;1.25;;;;;10.38;55.56;102936.94;4884597;29;45460;-71
2022/01/30 09:28:48;;;;;;;;;2.50;2.00;;;;;10.30;56.09;102938.66;4885091;29;46329;-71
2022/01/30 09:31:14;;;;;;;;;2.00;2.00;;;;;10.35;56.21;102944.94;4871603;29;45492;-69
2022/01/30 09:33:40;;;;;;;;;3.00;3.00;;;;;10.38;56.29;102944.06;4884896;29;45520;-70
2022/01/30 09:36:06;;;;;;;;;6.00;4.00;;;;;10.40;56.35;102944.06;4880856;29;45482;-71
2022/01/30 09:38:31;;;;;;;;;1.25;1.25;;;;;10.33;56.13;102936.03;4883685;29;46337;-70
2022/01/30 09:40:57;;;;;;;;;3.25;2.00;;;;;10.38;55.79;102939.59;4884052;29;45514;-71
2022/01/30 09:43:23;;;;;;;;;3.00;1.00;;;;;10.44;55.90;102948.53;4885037;29;45435;-71
2022/01/30 09:45:50;;;;;;;;;3.25;1.75;;;;;10.39;56.13;102945.88;4884829;29;45408;-74
2022/01/30 09:48:17;;;;;;;;;2.00;2.00;;;;;10.44;55.74;102948.53;4885373;29;45945;-72
2022/01/30 09:50:43;;;;;;;;;2.00;2.00;;;;;10.46;55.80;102953.00;4885049;29;45624;-70
2022/01/30 09:53:08;;;;;;;;;2.50;0.50;;;;;10.50;56.74;102945.88;4885261;29;45538;-71
2022/01/30 09:55:34;;;;;;;;;2.25;1.75;;;;;10.55;56.42;102945.00;4884110;29;45474;-71
2022/01/30 09:57:59;;;;;;;;;2.50;2.50;;;;;10.56;55.96;102945.91;4899717;29;48602;-71
2022/01/30 10:00:24;;;;;;;;;2.75;2.00;;;;;10.59;55.56;102943.22;4884830;29;45380;-71
2022/01/30 10:02:50;;;;;;;;;3.00;1.75;;;;;10.61;55.54;102949.50;4885279;29;45562;-71
2022/01/30 10:05:17;;;;;;;;;3.50;3.50;;;;;10.57;55.58;102942.34;4885169;29;45410;-71
2022/01/30 10:07:50;;;;;;;;;6.25;3.50;;;;;10.57;55.59;102945.91;4882357;29;46170;-71
2022/01/30 10:10:18;;;;;;;;;3.25;2.75;;;;;10.59;55.92;102948.56;4883477;29;45382;-69
2022/01/30 10:13:11;;;;;;;;;5.25;2.00;;;;;10.63;56.17;102947.69;4881526;29;45570;-70
2022/01/30 10:15:52;;;;;;;;;1.00;1.00;;;;;10.69;55.56;102953.06;4884576;29;45479;-70
2022/01/30 10:18:19;;;;;;;;;4.50;2.00;;;;;10.75;55.90;102941.50;4898987;29;46350;-70
2022/01/30 10:20:45;;;;;;;;;4.50;2.00;;;;;10.77;55.72;102945.06;4879467;29;45689;-70
2022/01/30 10:23:11;;;;;;;;;2.25;2.25;;;;;10.78;55.64;102937.97;4884851;29;45269;-70
2022/01/30 10:25:39;;;;;;;;;3.75;2.50;;;;;10.78;56.13;102928.16;4884067;29;45545;-70
2022/01/30 10:28:05;;;;;;;;;4.25;4.00;;;;;10.90;55.27;102941.50;4884416;29;46165;-70
2022/01/30 10:30:43;;;;;;;;;5.50;3.50;;;;;10.86;54.88;102939.75;4880455;29;45390;-73
2022/01/30 10:33:09;;;;;;;;;8.75;3.50;;;;;10.82;55.51;102932.59;4882563;29;45372;-79
2022/01/30 10:35:51;;;;;;;;;4.00;4.00;;;;;10.84;55.02;102929.94;4881945;29;45389;-73
2022/01/30 10:38:22;;;;;;;;;8.00;4.25;;;;;10.85;55.47;102927.25;4882140;29;45410;-72
2022/01/30 10:40:52;;;;;;;;;5.00;3.25;;;;;10.99;55.14;102937.97;4883413;29;45571;-72
2022/01/30 10:43:18;;;;;;;;;3.50;3.50;;;;;11.03;55.22;102934.41;4884774;29;45325;-72
2022/01/30 10:45:43;;;;;;;;;7.00;4.25;;;;;10.96;54.82;102916.59;4882785;29;45205;-73
2022/01/30 10:48:21;;;;;;;;;10.50;7.25;;;;;11.10;55.14;102938.88;4875527;29;45359;-72
2022/01/30 10:50:48;;;;;;;;;4.75;4.00;;;;;11.06;55.11;102929.06;4881623;29;45549;-71
2022/01/30 10:53:19;;;;;;;;;5.75;4.00;;;;;11.09;54.76;102939.78;4898934;29;45389;-71
2022/01/30 10:55:45;;;;;;;;;4.25;2.75;;;;;11.09;54.54;102938.84;4883771;29;45454;-71
2022/01/30 10:58:15;;;;;;;;;5.75;3.25;;;;;11.03;54.43;102925.50;4884394;29;45923;-71
2022/01/30 11:00:47;;;;;;;;;3.50;3.50;;;;;11.10;54.86;102921.94;4872044;29;45243;-71
2022/01/30 11:03:39;;;;;;;;;5.00;3.75;;;;;11.08;54.26;102931.75;4880614;29;45324;-71
2022/01/30 11:06:10;;;;;;;;;2.75;2.75;;;;;11.11;54.66;102937.97;4882177;29;45418;-74
2022/01/30 11:08:39;;;;;;;;;4.75;3.25;;;;;11.13;54.84;102930.84;4881347;29;45643;-73
2022/01/30 11:12:00;;;;;;;;;4.75;4.00;;;;;11.13;54.56;102925.50;4880578;29;46243;-71
2022/01/30 11:19:15;;;;;;;;;3.75;3.50;;;;;11.13;54.55;102912.13;4882526;29;45368;-74
2022/01/30 11:21:41;;;;;;;;;5.25;4.00;;;;;11.14;54.12;102899.66;4883227;29;45521;-71
2022/01/30 11:24:08;;;;;;;;;5.50;4.00;;;;;11.18;54.49;102906.81;4880637;29;45317;-76
2022/01/30 11:26:34;;;;;;;;;5.00;4.00;;;;;11.16;54.14;102905.91;4881799;29;45498;-71
2022/01/30 11:28:59;;;;;;;;;9.00;4.00;;;;;11.19;54.00;102911.22;4883036;29;46902;-67
2022/01/30 11:31:25;;;;;;;;;5.00;5.00;;;;;11.07;53.77;102895.22;4882058;29;45404;-75
2022/01/30 11:33:52;;;;;;;;;5.00;4.00;;;;;11.12;53.91;102904.13;4883494;29;45311;-74
2022/01/30 11:36:20;;;;;;;;;3.25;3.25;;;;;11.11;54.05;102889.00;4882616;29;45494;-75
2022/01/30 11:38:46;;;;;;;;;5.75;5.00;;;;;11.15;53.92;102892.56;4897179;29;47254;-68
2022/01/30 11:41:14;;;;;;;;;4.25;3.50;;;;;11.08;53.76;102887.19;4881736;29;45549;-71
2022/01/30 11:43:40;;;;;;;;;5.50;5.00;;;;;11.05;53.84;102880.97;4885328;29;45502;-71
2022/01/30 11:46:16;;;;;;;;;3.00;3.00;;;;;11.10;53.96;102889.88;4885699;29;45422;-73
2022/01/30 11:48:42;;;;;;;;;6.00;4.75;;;;;11.12;53.96;102880.06;4885075;29;45397;-75
2022/01/30 11:51:08;;;;;;;;;8.00;5.00;;;;;11.15;54.08;102873.84;4884658;29;45583;-75
2022/01/30 11:53:33;;;;;;;;;6.00;3.75;;;;;11.18;54.19;102869.38;4883543;29;45810;-77
2022/01/30 11:56:01;;;;;;;;;5.00;5.00;;;;;11.24;54.22;102873.81;4881323;29;45689;-81
2022/01/30 11:58:30;;;;;;;;;5.00;5.00;;;;;11.25;53.85;102868.47;4885025;29;46610;-80
2022/01/30 12:00:58;;;;;;;;;9.00;4.00;;;;;11.26;53.84;102869.34;4884163;29;45412;-82
2022/01/30 12:03:25;;;;;;;;;5.50;5.00;;;;;11.27;54.19;102861.31;4883297;29;45539;-77
2022/01/30 12:05:52;;;;;;;;;10.50;8.25;;;;;11.29;54.03;102861.31;4885432;29;45378;-77
2022/01/30 12:08:44;;;;;;;;;9.50;6.00;;;;;11.23;53.44;102848.00;4884390;29;46288;-78
2022/01/30 12:11:39;;;;;;;;;8.25;4.50;;;;;11.25;53.50;102862.25;4884194;29;45568;-78
2022/01/30 12:14:04;;;;;;;;;10.75;6.00;;;;;11.27;53.69;102855.09;4883937;29;45458;-77
2022/01/30 12:16:46;;;;;;;;;5.00;4.00;;;;;11.31;53.85;102863.13;4883868;29;45394;-76
2022/01/30 12:19:13;;;;;;;;;10.75;7.00;;;;;11.37;54.00;102855.97;4885372;29;45899;-77
2022/01/30 12:21:39;;;;;;;;;6.50;5.25;;;;;11.38;53.42;102847.97;4882542;29;45340;-77
2022/01/30 12:24:25;;;;;;;;;5.75;5.75;;;;;11.37;53.75;102832.78;4879326;29;45316;-77
2022/01/30 12:26:56;;;;;;;;;10.00;6.25;;;;;11.37;53.80;102823.88;4881896;29;45284;-77
2022/01/30 12:29:41;;;;;;;;;6.00;6.00;;;;;11.45;53.91;102828.31;4884183;29;46916;-75